Time;durP1;ratioP1;P1;durP2;ratioP2;P2;SDS_P1;SDS_P2;PMS_P1;PMS_P2;Temp;Humidity;BMP_temperature;BMP_pressure;BME280_temperature;BME280_humidity;BME280_pressure;Samples;Min_cycle;Max_cycle;Signal;HPM_P1;HPM_P2
2021/05/04 00:00:08;;;;;;;2.92;2.15;;;;;;;16.94;48.58;101763.41;1756003;82;21149;-50
2021/05/04 00:02:35;;;;;;;3.95;2.80;;;;;;;16.90;48.20;101771.86;1752879;82;21283;-49
2021/05/04 00:05:05;;;;;;;6.37;2.40;;;;;;;16.87;48.64;101786.44;1749403;82;21171;-53
2021/05/04 00:07:32;;;;;;;2.40;2.20;;;;;;;16.82;48.81;101784.38;1756058;82;21110;-47
2021/05/04 00:10:00;;;;;;;2.83;2.17;;;;;;;16.83;48.96;101799.71;1750028;82;21145;-49
2021/05/04 00:12:28;;;;;;;3.00;2.47;;;;;;;16.81;48.99;101788.38;1749926;81;21137;-50
2021/05/04 00:14:57;;;;;;;4.53;2.10;;;;;;;16.80;49.06;101791.46;1755395;82;21580;-47
2021/05/04 00:17:25;;;;;;;3.45;2.00;;;;;;;16.80;49.16;101793.22;1756047;82;21149;-49
2021/05/04 00:19:54;;;;;;;3.47;2.45;;;;;;;16.82;49.27;101800.60;1756193;82;21621;-47
2021/05/04 00:22:23;;;;;;;2.27;2.02;;;;;;;16.82;49.01;101796.66;1755496;81;21200;-49
2021/05/04 00:24:51;;;;;;;1.92;1.72;;;;;;;16.80;48.65;101794.53;1765301;81;21314;-49
2021/05/04 00:27:19;;;;;;;3.55;2.47;;;;;;;16.78;47.70;101797.22;1762947;81;21152;-49
2021/05/04 00:29:47;;;;;;;2.60;2.00;;;;;;;16.73;47.71;101795.65;1769495;81;21184;-49
2021/05/04 00:32:15;;;;;;;2.52;2.33;;;;;;;16.68;47.66;101800.17;1734133;82;21296;-46
2021/05/04 00:34:44;;;;;;;2.15;1.77;;;;;;;16.63;48.31;101807.34;1723115;82;21181;-46
2021/05/04 00:37:12;;;;;;;1.52;1.42;;;;;;;16.60;47.65;101806.11;1727724;82;21145;-48
2021/05/04 00:39:41;;;;;;;3.98;1.80;;;;;;;16.54;46.96;101808.92;1776447;80;21168;-50
2021/05/04 00:42:10;;;;;;;2.35;2.15;;;;;;;16.49;46.55;101808.15;1764346;81;21175;-52
2021/05/04 00:44:38;;;;;;;1.82;1.67;;;;;;;16.43;46.75;101809.64;1763719;81;21155;-50
2021/05/04 00:47:05;;;;;;;1.92;1.70;;;;;;;16.39;46.94;101817.20;1705443;82;21122;-50
2021/05/04 00:49:33;;;;;;;1.70;1.60;;;;;;;16.35;47.04;101819.52;1770226;81;21279;-46
2021/05/04 00:52:02;;;;;;;1.62;1.52;;;;;;;16.32;46.98;101821.80;1778859;81;21613;-49
2021/05/04 00:54:30;;;;;;;2.40;1.92;;;;;;;16.30;46.78;101818.33;1763470;81;21145;-47
2021/05/04 00:56:59;;;;;;;1.98;1.75;;;;;;;16.27;46.22;101807.48;1771619;81;21311;-49
2021/05/04 00:59:27;;;;;;;2.35;1.50;;;;;;;16.26;44.92;101813.63;1719594;82;21145;-49
2021/05/04 01:01:56;;;;;;;4.03;1.50;;;;;;;16.23;44.48;101811.55;1756493;81;21129;-46
2021/05/04 01:04:23;;;;;;;1.57;1.40;;;;;;;16.21;44.43;101807.66;1775512;81;21200;-47
2021/05/04 01:06:52;;;;;;;1.50;1.40;;;;;;;16.20;44.61;101807.23;1773440;81;21561;-49
2021/05/04 01:09:21;;;;;;;1.60;1.50;;;;;;;16.20;44.61;101801.98;1770946;81;21129;-49
2021/05/04 01:11:49;;;;;;;1.60;1.50;;;;;;;16.20;44.38;101811.17;1771930;81;21149;-49
2021/05/04 01:14:17;;;;;;;1.60;1.45;;;;;;;16.17;44.44;101812.59;1752374;81;21161;-46
2021/05/04 01:16:54;;;;;;;2.00;1.60;;;;;;;16.15;44.57;101809.59;1766110;81;21580;-49
2021/05/04 01:19:22;;;;;;;2.62;1.77;;;;;;;16.13;44.75;101808.33;1728362;82;21153;-50
2021/05/04 01:21:51;;;;;;;1.60;1.40;;;;;;;16.10;44.90;101812.34;1757522;80;21232;-49
2021/05/04 01:24:20;;;;;;;2.00;1.27;;;;;;;16.08;44.94;101814.59;1767869;81;21537;-48
2021/05/04 01:26:48;;;;;;;1.50;1.40;;;;;;;16.04;44.95;101808.57;1778843;81;21157;-51
2021/05/04 01:29:16;;;;;;;1.80;1.60;;;;;;;16.01;44.54;101811.27;1731119;82;21190;-50
2021/05/04 01:31:44;;;;;;;2.72;1.70;;;;;;;15.97;44.44;101820.13;1771081;81;21148;-47
2021/05/04 01:34:12;;;;;;;3.02;1.60;;;;;;;15.94;44.71;101824.16;1770042;81;21148;-46
2021/05/04 01:36:41;;;;;;;1.80;1.57;;;;;;;15.91;44.60;101828.17;1750815;81;21180;-49
2021/05/04 01:39:10;;;;;;;1.92;1.30;;;;;;;15.88;44.94;101836.14;1769799;81;21165;-46
2021/05/04 01:41:38;;;;;;;2.22;1.45;;;;;;;15.88;45.22;101840.08;1730329;82;21599;-51
2021/05/04 01:44:08;;;;;;;1.75;1.62;;;;;;;15.85;44.85;101836.20;1755832;80;21141;-49
2021/05/04 01:46:37;;;;;;;3.50;1.55;;;;;;;15.84;44.90;101837.13;1770949;81;21164;-49
2021/05/04 01:49:07;;;;;;;2.08;1.50;;;;;;;15.80;44.70;101832.86;1763936;81;21148;-46
2021/05/04 01:51:37;;;;;;;2.92;1.60;;;;;;;15.77;44.28;101833.36;1769670;81;21561;-46
2021/05/04 01:54:05;;;;;;;1.65;1.37;;;;;;;15.75;44.42;101839.11;1730164;82;21643;-51
2021/05/04 01:56:33;;;;;;;1.57;1.47;;;;;;;15.70;44.33;101841.88;1778989;81;21200;-49
2021/05/04 01:59:03;;;;;;;1.72;1.40;;;;;;;15.67;44.50;101843.25;1769823;81;21295;-49
2021/05/04 02:01:30;;;;;;;1.40;1.30;;;;;;;15.62;44.80;101841.17;1727688;82;21161;-49
2021/05/04 02:03:58;;;;;;;2.70;1.40;;;;;;;15.61;44.88;101836.84;1729512;82;21146;-46
2021/05/04 02:06:26;;;;;;;1.65;1.55;;;;;;;15.60;44.98;101835.11;1771975;81;21192;-46
2021/05/04 02:08:55;;;;;;;1.72;1.60;;;;;;;15.60;45.13;101835.11;1763442;81;21574;-50
2021/05/04 02:11:23;;;;;;;1.67;1.30;;;;;;;15.57;44.82;101836.52;1729419;82;21549;-50
2021/05/04 02:13:51;;;;;;;2.58;1.77;;;;;;;15.55;44.85;101844.00;1761890;81;21176;-50
2021/05/04 02:16:19;;;;;;;1.62;1.50;;;;;;;15.54;44.74;101845.75;1760538;81;21140;-50
2021/05/04 02:18:47;;;;;;;1.55;1.45;;;;;;;15.53;44.89;101850.61;1741277;82;21173;-49
2021/05/04 02:21:16;;;;;;;1.87;1.42;;;;;;;15.52;44.34;101854.59;1769765;81;21117;-47
2021/05/04 02:23:45;;;;;;;2.20;1.37;;;;;;;15.50;44.54;101851.98;1770019;80;21129;-46
2021/05/04 02:26:15;;;;;;;1.57;1.47;;;;;;;15.48;44.53;101852.02;1737309;82;21556;-46
2021/05/04 02:28:44;;;;;;;2.37;1.65;;;;;;;15.48;44.76;101861.65;1779490;80;21561;-49
2021/05/04 02:31:13;;;;;;;1.70;1.60;;;;;;;15.48;44.51;101865.58;1779997;80;21140;-49
2021/05/04 02:33:41;;;;;;;2.37;1.45;;;;;;;15.49;44.30;101869.95;1782655;80;21156;-48
2021/05/04 02:36:09;;;;;;;1.85;1.27;;;;;;;15.48;44.62;101870.39;1780041;80;21604;-48
2021/05/04 02:38:37;;;;;;;1.35;1.20;;;;;;;15.50;44.94;101872.97;1778507;80;21144;-46
2021/05/04 02:41:06;;;;;;;3.75;1.62;;;;;;;15.51;44.70;101873.39;1742526;82;21180;-49
2021/05/04 02:43:35;;;;;;;1.90;1.70;;;;;;;15.48;44.58;101868.68;1772952;80;21588;-48
2021/05/04 02:46:05;;;;;;;2.52;1.75;;;;;;;15.47;45.08;101871.74;1778519;80;21132;-48
2021/05/04 02:48:39;;;;;;;1.62;1.50;;;;;;;15.46;45.08;101873.50;1736694;82;21624;-51
2021/05/04 02:51:07;;;;;;;1.60;1.37;;;;;;;15.46;45.11;101880.50;1774362;80;21572;-48
2021/05/04 02:53:35;;;;;;;1.67;1.57;;;;;;;15.43;45.04;101883.21;1736005;82;21142;-50
2021/05/04 02:56:04;;;;;;;1.45;1.35;;;;;;;15.42;45.41;101898.48;1783250;80;21152;-46
2021/05/04 02:58:32;;;;;;;4.85;1.40;;;;;;;15.41;45.28;101899.40;1776205;80;21152;-50
2021/05/04 03:01:00;;;;;;;1.65;1.37;;;;;;;15.40;45.42;101895.03;1774430;80;21664;-48
2021/05/04 03:03:29;;;;;;;2.85;1.47;;;;;;;15.41;45.14;101901.55;1742939;82;21283;-46
2021/05/04 03:05:57;;;;;;;1.57;1.40;;;;;;;15.41;45.29;101904.17;1780358;80;21136;-49
2021/05/04 03:08:25;;;;;;;1.35;1.25;;;;;;;15.42;45.33;101899.80;1785377;80;21156;-47
2021/05/04 03:10:53;;;;;;;1.42;1.32;;;;;;;15.42;45.29;101907.66;1780159;80;21144;-52
2021/05/04 03:13:29;;;;;;;2.30;1.30;;;;;;;15.42;45.15;101908.98;1743603;82;21149;-49
2021/05/04 03:15:58;;;;;;;1.82;1.60;;;;;;;15.45;45.03;101911.58;1691405;84;21183;-46
2021/05/04 03:18:26;;;;;;;1.72;1.20;;;;;;;15.48;44.70;101911.48;1691381;85;21646;-49
2021/05/04 03:20:54;;;;;;;2.00;1.30;;;;;;;15.50;44.53;101914.94;1691435;85;21601;-49
2021/05/04 03:23:22;;;;;;;1.40;1.30;;;;;;;15.53;43.65;101917.50;1693209;85;21334;-46
2021/05/04 03:25:51;;;;;;;1.30;1.20;;;;;;;15.54;43.66;101919.21;1694124;85;21177;-49
2021/05/04 03:28:19;;;;;;;1.50;1.40;;;;;;;15.55;44.00;101923.58;1694178;85;21189;-49
2021/05/04 03:30:47;;;;;;;1.50;1.27;;;;;;;15.57;44.09;101926.16;1694516;85;21197;-50
2021/05/04 03:33:14;;;;;;;1.85;1.40;;;;;;;15.58;43.73;101923.95;1694324;85;21185;-47
2021/05/04 03:35:43;;;;;;;1.52;1.30;;;;;;;15.55;43.58;101928.82;1694330;85;21177;-46
2021/05/04 03:38:11;;;;;;;1.90;1.32;;;;;;;15.55;43.90;101936.69;1694223;84;21621;-50
2021/05/04 03:40:39;;;;;;;1.72;1.30;;;;;;;15.56;44.29;101948.05;1694122;85;21197;-51
2021/05/04 03:43:07;;;;;;;1.87;1.20;;;;;;;15.58;44.31;101948.41;1694085;85;21189;-49
2021/05/04 03:45:35;;;;;;;1.37;1.27;;;;;;;15.64;43.98;101950.89;1694353;85;21173;-48
2021/05/04 03:48:05;;;;;;;1.52;1.42;;;;;;;15.69;43.74;101956.03;1694164;85;21185;-47
2021/05/04 03:50:32;;;;;;;1.72;1.30;;;;;;;15.71;43.63;101959.04;1694086;85;21194;-49
2021/05/04 03:53:01;;;;;;;2.35;1.60;;;;;;;15.72;43.32;101959.47;1693992;85;21193;-49
2021/05/04 03:55:29;;;;;;;1.65;1.47;;;;;;;15.73;43.41;101959.86;1694191;85;21204;-46
2021/05/04 03:57:57;;;;;;;1.90;1.52;;;;;;;15.74;43.34;101962.92;1694179;85;21197;-50
2021/05/04 04:00:25;;;;;;;1.37;1.17;;;;;;;15.75;43.18;101962.00;1692892;85;21222;-48
2021/05/04 04:02:53;;;;;;;1.57;1.40;;;;;;;15.76;43.11;101954.56;1694067;84;21769;-46
2021/05/04 04:05:21;;;;;;;3.05;1.98;;;;;;;15.77;42.63;101958.89;1694286;85;21318;-49
2021/05/04 04:07:49;;;;;;;2.17;1.80;;;;;;;15.76;42.64;101957.62;1694254;84;21237;-46
2021/05/04 04:10:18;;;;;;;1.30;1.20;;;;;;;15.74;43.02;101956.36;1694173;85;21312;-49
2021/05/04 04:12:47;;;;;;;3.22;1.42;;;;;;;15.75;43.19;101959.82;1728944;81;21165;-46
2021/05/04 04:15:15;;;;;;;2.12;1.50;;;;;;;15.73;43.03;101969.05;1767797;81;21181;-49
2021/05/04 04:17:44;;;;;;;1.40;1.30;;;;;;;15.73;42.67;101966.42;1764125;81;21182;-46
2021/05/04 04:20:12;;;;;;;1.30;1.20;;;;;;;15.74;42.42;101973.41;1766235;81;21164;-49
2021/05/04 04:22:40;;;;;;;1.25;1.15;;;;;;;15.74;42.26;101977.35;1769631;80;21207;-46
2021/05/04 04:25:10;;;;;;;1.37;1.27;;;;;;;15.75;42.11;101970.31;1762745;81;21153;-49
2021/05/04 04:27:37;;;;;;;1.98;1.12;;;;;;;15.75;42.20;101972.50;1762954;80;21574;-49
2021/05/04 04:30:07;;;;;;;1.50;1.40;;;;;;;15.77;42.32;101974.63;1761507;81;21168;-48
2021/05/04 04:32:35;;;;;;;1.17;1.12;;;;;;;15.78;42.47;101980.31;1760914;80;21168;-48
2021/05/04 04:35:04;;;;;;;1.40;1.30;;;;;;;15.79;42.33;101981.16;1743407;81;21184;-46
2021/05/04 04:37:32;;;;;;;1.35;1.20;;;;;;;15.78;42.19;101979.45;1741304;80;21185;-49
2021/05/04 04:39:59;;;;;;;1.15;0.90;;;;;;;15.80;41.94;101984.20;1747338;81;21160;-46
2021/05/04 04:42:27;;;;;;;1.20;1.02;;;;;;;15.79;41.94;101987.27;1761070;80;21195;-46
2021/05/04 04:44:55;;;;;;;1.42;1.30;;;;;;;15.78;41.32;101986.88;1762592;80;21165;-49
2021/05/04 04:47:23;;;;;;;1.30;1.20;;;;;;;15.77;41.71;101987.76;1761666;81;21165;-47
2021/05/04 04:49:51;;;;;;;1.42;1.32;;;;;;;15.79;42.15;101984.65;1762524;81;21168;-49
2021/05/04 04:52:19;;;;;;;1.35;1.10;;;;;;;15.81;42.35;101981.53;1760305;81;21168;-49
2021/05/04 04:54:47;;;;;;;1.32;1.22;;;;;;;15.84;42.03;101970.98;1760861;81;21192;-47
2021/05/04 04:57:14;;;;;;;1.05;1.00;;;;;;;15.87;41.83;101966.95;1766418;81;21164;-47
2021/05/04 04:59:43;;;;;;;1.55;1.40;;;;;;;15.88;41.72;101972.63;1759508;81;21194;-51
2021/05/04 05:02:11;;;;;;;2.00;1.60;;;;;;;15.89;41.95;101970.41;1762401;81;21181;-49
2021/05/04 05:04:39;;;;;;;1.57;1.17;;;;;;;15.90;41.65;101961.64;1762928;81;21169;-47
2021/05/04 05:07:08;;;;;;;1.62;1.40;;;;;;;15.95;41.77;101975.97;1763005;81;21585;-49
2021/05/04 05:09:37;;;;;;;2.92;1.30;;;;;;;15.98;41.46;101977.20;1762216;81;21588;-49
2021/05/04 05:12:07;;;;;;;1.27;1.17;;;;;;;15.99;41.22;101981.09;1747754;81;21121;-51
2021/05/04 05:14:36;;;;;;;2.15;1.20;;;;;;;16.01;41.57;101974.03;1764072;81;21573;-46
2021/05/04 05:17:04;;;;;;;1.27;1.12;;;;;;;16.05;41.57;101986.18;1760995;81;21593;-52
2021/05/04 05:19:32;;;;;;;2.00;1.30;;;;;;;16.10;41.13;101984.31;1769158;81;21152;-47
2021/05/04 05:22:01;;;;;;;2.27;1.15;;;;;;;16.12;41.41;101990.39;1761361;81;21192;-50
2021/05/04 05:24:30;;;;;;;2.02;1.10;;;;;;;16.16;41.55;101986.79;1768853;81;21173;-48
2021/05/04 05:26:57;;;;;;;2.52;1.30;;;;;;;16.23;41.39;101992.31;1762388;81;21146;-49
2021/05/04 05:29:28;;;;;;;2.12;1.30;;;;;;;16.32;41.65;101994.29;1770611;81;21720;-50
2021/05/04 05:31:56;;;;;;;1.77;1.42;;;;;;;16.55;41.41;101998.05;1757757;81;21168;-49
2021/05/04 05:34:24;;;;;;;2.47;1.27;;;;;;;16.98;40.55;102000.39;1774579;81;21141;-47
2021/05/04 05:36:52;;;;;;;2.22;1.57;;;;;;;17.53;39.70;101991.30;1776724;81;21144;-46
2021/05/04 05:39:22;;;;;;;1.25;1.15;;;;;;;18.14;38.74;101991.50;1735392;82;21137;-49
2021/05/04 05:41:50;;;;;;;1.55;1.30;;;;;;;18.72;37.87;101991.70;1765187;80;21286;-50
2021/05/04 05:44:18;;;;;;;1.32;1.07;;;;;;;19.30;36.64;101996.56;1728598;82;21137;-47
2021/05/04 05:46:46;;;;;;;2.12;1.25;;;;;;;19.76;35.70;101996.12;1772462;81;21161;-50
2021/05/04 05:49:14;;;;;;;1.17;1.07;;;;;;;20.15;34.74;101995.33;1764412;81;21298;-51
2021/05/04 05:51:42;;;;;;;1.25;1.15;;;;;;;20.59;34.03;102001.41;1766701;80;21149;-46
2021/05/04 05:54:11;;;;;;;2.77;1.22;;;;;;;21.04;33.45;101994.09;1762684;81;21330;-50
2021/05/04 05:56:39;;;;;;;1.60;1.10;;;;;;;21.59;32.47;101997.70;1761103;81;21168;-47
2021/05/04 05:59:07;;;;;;;1.50;1.25;;;;;;;22.01;31.89;102002.72;1728162;82;21178;-48
2021/05/04 06:01:35;;;;;;;1.15;1.05;;;;;;;22.32;31.07;101997.59;1768540;81;21544;-50
2021/05/04 06:04:04;;;;;;;1.25;1.10;;;;;;;22.62;30.50;102009.34;1714158;82;21190;-49
2021/05/04 06:06:32;;;;;;;1.02;1.00;;;;;;;22.90;30.18;102014.50;1767326;80;21290;-47
2021/05/04 06:09:01;;;;;;;2.33;1.25;;;;;;;23.19;29.56;102009.82;1754479;81;21122;-48
2021/05/04 06:11:29;;;;;;;1.45;1.20;;;;;;;23.32;29.13;102009.13;1773123;80;21173;-47
2021/05/04 06:13:57;;;;;;;1.45;1.10;;;;;;;23.47;28.51;102006.55;1760878;81;21129;-46
2021/05/04 06:16:26;;;;;;;2.15;1.20;;;;;;;23.64;28.45;102011.80;1761135;81;21138;-49
2021/05/04 06:18:55;;;;;;;2.20;1.35;;;;;;;23.89;28.05;102007.64;1729603;82;21162;-48
2021/05/04 06:21:22;;;;;;;1.82;1.00;;;;;;;24.07;27.73;102002.62;1765272;80;21157;-48
2021/05/04 06:23:52;;;;;;;1.65;1.25;;;;;;;24.31;27.53;102004.33;1774583;80;21592;-48
2021/05/04 06:26:21;;;;;;;1.75;1.05;;;;;;;24.64;27.21;101999.65;1780035;80;21112;-49
2021/05/04 06:28:51;;;;;;;2.30;1.37;;;;;;;24.64;27.21;101999.65;1765505;80;21157;-48
2021/05/04 06:31:20;;;;;;;1.70;1.37;;;;;;;24.60;27.71;102007.44;1771928;80;21289;-49
2021/05/04 06:33:48;;;;;;;2.15;1.60;;;;;;;24.48;27.57;102001.99;1741362;82;21132;-48
2021/05/04 06:36:17;;;;;;;4.03;1.52;;;;;;;24.29;27.75;102006.22;1776831;80;21128;-46
2021/05/04 06:38:45;;;;;;;1.87;1.47;;;;;;;24.07;27.43;102009.27;1729741;82;21172;-47
2021/05/04 06:41:13;;;;;;;1.60;1.50;;;;;;;23.88;27.57;102005.94;1723286;82;21117;-46
2021/05/04 06:43:43;;;;;;;2.12;1.30;;;;;;;23.71;28.12;102007.37;1738417;82;21153;-47
2021/05/04 06:46:11;;;;;;;2.37;1.40;;;;;;;23.67;28.59;102013.80;1743995;82;21116;-49
2021/05/04 06:48:40;;;;;;;3.42;1.92;;;;;;;23.70;28.69;102010.12;1775233;80;21117;-49
2021/05/04 06:51:08;;;;;;;2.20;1.30;;;;;;;23.75;28.65;102006.25;1773350;80;21144;-46
2021/05/04 06:53:37;;;;;;;1.82;1.30;;;;;;;23.84;28.39;102010.19;1778733;80;21295;-51
2021/05/04 06:56:05;;;;;;;5.47;1.60;;;;;;;23.95;28.15;102007.28;1764992;80;21128;-48
2021/05/04 06:58:34;;;;;;;1.67;1.30;;;;;;;24.15;28.11;102009.67;1776982;80;21121;-48
2021/05/04 07:01:02;;;;;;;1.50;1.35;;;;;;;24.37;27.74;102016.40;1772078;80;21144;-48
2021/05/04 07:03:30;;;;;;;2.05;1.30;;;;;;;24.52;26.84;102015.49;1780917;80;21164;-49
2021/05/04 07:05:59;;;;;;;1.27;1.17;;;;;;;24.70;26.99;102012.58;1773331;80;21577;-50
2021/05/04 07:08:27;;;;;;;1.30;1.20;;;;;;;24.92;26.90;102014.34;1773277;80;21148;-51
2021/05/04 07:10:57;;;;;;;1.30;1.20;;;;;;;25.21;25.91;102011.19;1771294;80;21151;-49
2021/05/04 07:13:25;;;;;;;3.60;1.77;;;;;;;25.38;25.34;102008.33;1741072;82;21175;-47
2021/05/04 07:15:53;;;;;;;1.72;1.50;;;;;;;25.55;25.54;102001.48;1736920;82;21294;-47
2021/05/04 07:18:24;;;;;;;1.57;1.45;;;;;;;25.75;25.29;102010.37;1735821;82;21303;-46
2021/05/04 07:20:51;;;;;;;3.27;1.80;;;;;;;25.81;25.31;102003.30;1776440;80;21597;-46
2021/05/04 07:23:19;;;;;;;3.40;2.10;;;;;;;25.83;25.08;102006.72;1774020;80;21191;-49
2021/05/04 07:25:49;;;;;;;2.37;1.50;;;;;;;25.82;25.00;102006.33;1764923;81;21129;-46
2021/05/04 07:28:18;;;;;;;1.60;1.50;;;;;;;25.79;25.31;102003.88;1729127;82;21585;-49
2021/05/04 07:30:46;;;;;;;1.55;1.45;;;;;;;25.72;24.67;102002.55;1762040;81;21169;-49
2021/05/04 07:33:14;;;;;;;2.98;1.60;;;;;;;25.61;25.24;101998.42;1772096;81;21157;-47
2021/05/04 07:35:44;;;;;;;5.15;1.62;;;;;;;25.52;25.10;102005.66;1768477;81;21568;-49
2021/05/04 07:38:13;;;;;;;3.20;1.80;;;;;;;24.96;26.20;102003.02;1769678;81;21584;-48
2021/05/04 07:40:41;;;;;;;1.70;1.60;;;;;;;24.96;26.20;102003.02;1763665;81;21335;-48
2021/05/04 07:43:09;;;;;;;6.20;1.80;;;;;;;24.65;26.45;102003.14;1750450;81;21171;-45
2021/05/04 07:45:37;;;;;;;2.60;2.05;;;;;;;24.33;27.10;102008.22;1767013;81;21177;-46
2021/05/04 07:48:10;;;;;;;4.08;2.20;;;;;;;23.97;27.37;102005.39;1774810;81;21128;-49
2021/05/04 07:50:38;;;;;;;;;;;;;;;23.63;28.10;102010.93;1774055;81;21192;-48
2021/05/04 07:53:07;;;;;;;2.92;1.85;;;;;;;23.34;28.61;102009.03;1771832;81;20231;-48
2021/05/04 07:55:35;;;;;;;2.33;2.15;;;;;;;23.07;28.27;102011.81;1771915;81;21169;-51
2021/05/04 07:58:03;;;;;;;1.87;1.75;;;;;;;22.78;28.70;102004.54;1764880;81;21175;-47
2021/05/04 08:00:31;;;;;;;2.20;2.00;;;;;;;22.52;28.99;101998.75;1763094;81;21105;-47
2021/05/04 08:03:01;;;;;;;1.72;1.47;;;;;;;22.26;29.47;101993.07;1763810;81;21137;-45
2021/05/04 08:05:31;;;;;;;2.22;1.60;;;;;;;22.08;28.43;101993.55;1731188;82;21275;-48
2021/05/04 08:07:58;;;;;;;3.05;2.10;;;;;;;21.91;28.73;101995.33;1776686;81;21137;-47
2021/05/04 08:10:27;;;;;;;3.52;1.90;;;;;;;21.69;29.35;101991.03;1778821;81;21137;-46
2021/05/04 08:12:55;;;;;;;2.27;1.60;;;;;;;21.51;29.94;101983.11;1772247;81;21152;-46
2021/05/04 08:15:23;;;;;;;2.12;1.92;;;;;;;21.35;29.78;101990.06;1752533;81;21295;-45
2021/05/04 08:20:33;;;;;;;2.40;1.42;;;;;;;21.16;30.71;101986.54;1807654;79;21093;-47
2021/05/04 08:23:01;;;;;;;2.72;1.37;;;;;;;21.06;30.60;101981.66;1779838;80;21191;-46
2021/05/04 08:25:29;;;;;;;1.87;1.50;;;;;;;21.05;31.40;101979.95;1771995;80;21143;-47
2021/05/04 08:27:57;;;;;;;1.60;1.42;;;;;;;21.02;31.03;101977.44;1770300;80;21128;-47
2021/05/04 08:30:25;;;;;;;1.65;1.35;;;;;;;20.97;31.25;101973.25;1776368;80;21123;-46
2021/05/04 08:32:55;;;;;;;3.47;1.90;;;;;;;20.90;31.43;101973.99;1765456;80;21350;-50
2021/05/04 08:35:25;;;;;;;2.65;1.80;;;;;;;20.84;31.33;101967.66;1765946;80;21162;-47
2021/05/04 08:37:56;;;;;;;2.45;1.82;;;;;;;20.77;31.55;101971.48;1776873;80;21140;-47
2021/05/04 08:40:24;;;;;;;2.15;1.85;;;;;;;20.68;32.19;101971.92;1769257;80;21292;-46
2021/05/04 08:42:52;;;;;;;1.65;1.55;;;;;;;20.58;32.51;101973.25;1772535;80;21178;-48
2021/05/04 08:45:20;;;;;;;2.08;1.87;;;;;;;20.48;32.69;101977.23;1770297;80;21128;-52
2021/05/04 08:47:51;;;;;;;2.33;2.10;;;;;;;20.37;33.38;101975.50;1775992;80;21271;-49
2021/05/04 08:50:21;;;;;;;2.45;2.25;;;;;;;20.32;33.52;101976.14;1779987;80;21195;-47
2021/05/04 08:52:51;;;;;;;2.02;1.90;;;;;;;20.28;33.89;101979.02;1772890;80;21695;-46
2021/05/04 08:55:19;;;;;;;3.33;2.20;;;;;;;20.23;33.89;101973.91;1771048;80;21294;-50
2021/05/04 08:57:47;;;;;;;4.72;2.20;;;;;;;20.21;34.07;101973.12;1770087;80;21159;-46
2021/05/04 09:00:16;;;;;;;2.50;2.30;;;;;;;20.22;34.06;101969.53;1776626;80;21322;-47
2021/05/04 09:03:16;;;;;;;2.17;1.95;;;;;;;20.28;34.21;101975.87;1765591;80;21148;-48
2021/05/04 09:06:03;;;;;;;2.05;1.85;;;;;;;20.30;33.79;101974.52;1767319;80;21164;-48
2021/05/04 09:11:44;;;;;;;2.33;1.80;;;;;;;20.21;34.79;101976.63;1772411;80;21619;-46
2021/05/04 09:17:24;;;;;;;2.95;1.62;;;;;;;20.20;34.44;101975.34;1771303;79;22844;-48
2021/05/04 09:20:23;;;;;;;1.45;1.30;;;;;;;20.13;34.46;101981.80;1735925;82;21160;-48
2021/05/04 09:22:43;;;;;;;1.50;1.40;;;;;;;20.08;34.80;101978.48;1739217;82;21613;-50
2021/05/04 09:25:33;;;;;;;1.27;1.17;;;;;;;20.08;35.13;101981.98;1735709;82;21188;-51
2021/05/04 09:28:06;;;;;;;1.72;1.60;;;;;;;20.07;35.55;101978.09;1743199;82;21164;-48
2021/05/04 09:30:34;;;;;;;1.52;1.20;;;;;;;20.06;35.04;101982.52;1734891;82;21161;-46
2021/05/04 09:33:12;;;;;;;1.10;1.02;;;;;;;20.06;34.84;101979.00;1739128;82;21156;-52
2021/05/04 09:35:41;;;;;;;1.77;1.30;;;;;;;20.06;35.12;101969.76;1737727;81;21617;-50
2021/05/04 09:38:11;;;;;;;2.75;1.37;;;;;;;20.06;35.65;101973.72;1744771;80;21157;-52
2021/05/04 09:40:46;;;;;;;6.55;2.35;;;;;;;20.05;35.50;101977.30;1739472;82;21156;-51
2021/05/04 09:43:23;;;;;;;1.45;1.35;;;;;;;20.10;35.47;101976.63;1771615;79;22903;-45
2021/05/04 09:45:59;;;;;;;2.37;1.35;;;;;;;20.12;35.57;101986.67;1728712;82;21212;-48
2021/05/04 09:48:35;;;;;;;1.92;1.37;;;;;;;20.19;35.47;101974.94;1737459;82;21604;-47
2021/05/04 09:51:12;;;;;;;1.72;1.37;;;;;;;20.28;35.88;101974.11;1706433;84;21331;-49
2021/05/04 09:56:32;;;;;;;;;;;;;;;20.50;35.95;101988.59;1716787;81;21127;-45
2021/05/04 09:59:00;;;;;;;1.77;1.17;;;;;;;20.60;35.89;101979.34;1688300;84;20156;-47
2021/05/04 10:01:28;;;;;;;2.52;1.42;;;;;;;20.68;35.96;101981.17;1713292;83;21335;-51
2021/05/04 10:03:56;;;;;;;3.77;1.50;;;;;;;20.73;36.04;101977.84;1713681;83;21647;-48
2021/05/04 10:06:24;;;;;;;4.17;1.37;;;;;;;20.78;36.16;101982.48;1715014;83;21171;-47
2021/05/04 10:08:52;;;;;;;3.95;1.40;;;;;;;20.79;35.93;101974.92;1721766;81;21341;-49
2021/05/04 10:11:21;;;;;;;1.90;1.32;;;;;;;20.82;35.87;101969.52;1718326;83;21175;-46
2021/05/04 10:13:55;;;;;;;4.45;1.40;;;;;;;20.86;35.69;101965.80;1718893;83;21147;-48
2021/05/04 10:16:29;;;;;;;2.70;1.80;;;;;;;20.88;35.78;101963.94;1718153;83;21567;-49
2021/05/04 10:19:02;;;;;;;2.37;1.45;;;;;;;20.90;35.34;101962.09;1716826;83;21226;-48
2021/05/04 10:21:35;;;;;;;1.65;1.35;;;;;;;20.90;35.85;101959.44;1810049;79;22828;-48
2021/05/04 10:24:05;;;;;;;1.82;1.42;;;;;;;20.83;35.68;101965.95;1783792;80;21548;-48
2021/05/04 10:26:33;;;;;;;2.70;1.67;;;;;;;20.81;36.53;101965.13;1776864;80;21172;-52
2021/05/04 10:29:05;;;;;;;2.25;2.08;;;;;;;20.78;35.81;101962.64;1776892;80;21311;-48
2021/05/04 10:31:39;;;;;;;2.12;1.92;;;;;;;20.78;35.88;101966.61;1773115;80;21333;-47
2021/05/04 10:34:34;;;;;;;1.70;1.60;;;;;;;20.78;35.81;101961.78;1772879;80;21647;-50
2021/05/04 10:37:03;;;;;;;1.90;1.35;;;;;;;20.76;35.39;101965.82;1773293;80;21143;-47
2021/05/04 10:39:45;;;;;;;2.17;1.60;;;;;;;20.68;35.46;101966.63;1764030;80;21659;-52
2021/05/04 10:45:12;;;;;;;2.65;1.20;;;;;;;20.51;36.03;101955.93;1804603;79;23020;-47
2021/05/04 10:47:46;;;;;;;3.37;1.30;;;;;;;20.39;36.55;101956.47;1790120;80;21282;-47
2021/05/04 10:50:27;;;;;;;1.37;1.22;;;;;;;20.32;36.21;101956.32;1788996;80;21151;-50
2021/05/04 10:52:59;;;;;;;2.37;1.12;;;;;;;20.27;36.15;101954.36;1784757;80;21199;-50
2021/05/04 10:55:56;;;;;;;1.43;1.23;;;;;;;20.25;36.96;101954.43;1787786;80;21301;-48
2021/05/04 10:58:29;;;;;;;1.37;1.27;;;;;;;20.25;36.53;101950.92;1784350;80;22264;-49
2021/05/04 11:01:04;;;;;;;1.98;1.42;;;;;;;20.29;36.87;101952.50;1782699;80;21132;-51
2021/05/04 11:03:38;;;;;;;2.00;1.52;;;;;;;20.35;37.01;101954.02;1791991;80;21129;-51
2021/05/04 11:06:18;;;;;;;2.17;1.70;;;;;;;20.40;36.61;101950.27;1785813;80;21585;-48
2021/05/04 11:08:54;;;;;;;2.72;1.52;;;;;;;20.42;36.49;101945.77;1729532;83;21206;-47
2021/05/04 11:11:29;;;;;;;2.42;1.50;;;;;;;20.43;36.58;101950.12;1735851;83;21569;-45
2021/05/04 11:14:21;;;;;;;3.87;1.50;;;;;;;20.46;36.68;101950.00;1819856;79;22786;-47
2021/05/04 11:16:59;;;;;;;3.42;1.52;;;;;;;20.43;37.03;101944.83;1782365;80;21092;-47
2021/05/04 11:19:32;;;;;;;1.57;1.40;;;;;;;20.49;37.47;101936.62;1779909;80;21168;-46
2021/05/04 11:22:09;;;;;;;2.62;2.08;;;;;;;20.57;36.98;101927.89;1778691;80;21163;-50
2021/05/04 11:24:41;;;;;;;4.20;2.35;;;;;;;20.63;37.17;101926.29;1778519;80;21159;-49
2021/05/04 11:27:16;;;;;;;5.57;3.27;;;;;;;20.69;37.34;101932.63;1777034;80;21143;-48
2021/05/04 11:29:47;;;;;;;3.52;3.22;;;;;;;20.73;37.74;101930.23;1771579;80;21447;-50
2021/05/04 11:32:27;;;;;;;3.22;2.77;;;;;;;20.76;38.11;101923.50;1780188;80;21148;-52
2021/05/04 11:34:58;;;;;;;;;;;;;;;20.79;38.01;101918.05;1774862;80;21132;-47
2021/05/04 11:37:35;;;;;;;2.83;2.50;;;;;;;20.82;37.35;101913.95;1776629;80;20135;-46
2021/05/04 11:40:09;;;;;;;4.08;2.37;;;;;;;20.82;37.10;101908.67;1777340;80;21131;-51
2021/05/04 11:42:49;;;;;;;2.55;1.87;;;;;;;20.84;37.52;101908.59;1770860;80;21588;-48
2021/05/04 11:45:29;;;;;;;1.73;1.63;;;;;;;20.86;37.56;101902.30;1784896;80;21145;-51
2021/05/04 11:48:06;;;;;;;3.05;1.90;;;;;;;20.89;37.61;101899.53;1784796;80;21144;-46
2021/05/04 11:50:41;;;;;;;2.40;1.82;;;;;;;20.87;38.02;101898.75;1777153;80;21143;-46
2021/05/04 11:53:10;;;;;;;2.58;1.60;;;;;;;20.88;37.73;101896.93;1777680;80;21227;-48